Time;durP1;ratioP1;P1;durP2;ratioP2;P2;SDS_P1;SDS_P2;PMS_P1;PMS_P2;Temp;Humidity;BMP_temperature;BMP_pressure;BME280_temperature;BME280_humidity;BME280_pressure;Samples;Min_cycle;Max_cycle;Signal;HPM_P1;HPM_P2
2023/10/02 00:00:42;;;;;;;6.63;2.13;;;;;;;12.90;100.00;96988.38;5073911;28;20226;-70
2023/10/02 00:03:09;;;;;;;7.00;2.63;;;;;;;12.93;100.00;96992.50;5075643;28;20303;-69
2023/10/02 00:05:50;;;;;;;4.10;1.90;;;;;;;12.93;100.00;96989.88;5074274;28;20204;-69
2023/10/02 00:08:31;;;;;;;4.77;2.20;;;;;;;12.78;100.00;96988.94;5075213;28;20200;-70
2023/10/02 00:11:05;;;;;;;4.63;1.70;;;;;;;12.78;100.00;96986.28;5075952;28;20219;-70
2023/10/02 00:13:32;;;;;;;4.97;2.67;;;;;;;12.69;100.00;96989.13;5075320;28;20220;-70
2023/10/02 00:16:00;;;;;;;4.80;2.10;;;;;;;12.94;100.00;96988.88;5074010;28;20211;-70
2023/10/02 00:18:27;;;;;;;5.93;2.03;;;;;;;12.69;100.00;96987.31;5075638;28;20207;-70
2023/10/02 00:21:17;;;;;;;9.57;2.27;;;;;;;12.55;100.00;96982.75;5074731;28;20223;-69
2023/10/02 00:23:59;;;;;;;7.03;2.40;;;;;;;12.71;100.00;96982.66;5075018;28;20222;-69
2023/10/02 00:26:26;;;;;;;7.27;2.23;;;;;;;12.67;100.00;96985.84;5073744;28;20207;-69
2023/10/02 00:28:52;;;;;;;6.53;2.20;;;;;;;12.69;100.00;96976.75;5074352;28;20200;-69
2023/10/02 00:31:35;;;;;;;7.10;2.60;;;;;;;12.80;100.00;96977.19;5075188;28;20565;-68
2023/10/02 00:34:02;;;;;;;5.97;2.23;;;;;;;12.78;100.00;96983.66;5075705;28;20268;-69
2023/10/02 00:36:30;;;;;;;6.20;2.70;;;;;;;12.57;100.00;96986.03;5073999;28;20203;-69
2023/10/02 00:39:24;;;;;;;5.43;1.83;;;;;;;12.69;100.00;96984.69;5074604;28;20196;-69
2023/10/02 00:42:10;;;;;;;4.80;2.20;;;;;;;12.54;100.00;96981.09;5074346;28;20220;-69
2023/10/02 00:44:51;;;;;;;5.00;2.30;;;;;;;12.55;100.00;96979.25;5073387;28;20276;-69
2023/10/02 00:47:38;;;;;;;5.37;2.17;;;;;;;12.62;100.00;96982.88;5073806;28;21183;-69
2023/10/02 00:50:16;;;;;;;6.53;2.17;;;;;;;12.81;100.00;96981.44;5074596;28;20231;-69
2023/10/02 00:52:46;;;;;;;3.50;1.60;;;;;;;12.69;100.00;96978.53;5073814;28;20219;-69
2023/10/02 00:55:14;;;;;;;4.63;1.97;;;;;;;12.65;100.00;96978.06;5074398;28;20268;-68
2023/10/02 00:57:42;;;;;;;5.30;2.10;;;;;;;12.61;100.00;96978.59;5073094;28;20207;-69
2023/10/02 01:00:20;;;;;;;6.50;2.57;;;;;;;12.64;100.00;96980.88;5074497;28;20373;-69
2023/10/02 01:02:50;;;;;;;5.87;2.27;;;;;;;12.66;100.00;96985.00;5073875;28;20945;-68
2023/10/02 01:05:21;;;;;;;5.80;2.30;;;;;;;12.63;100.00;96980.06;5073868;28;20370;-68
2023/10/02 01:07:53;;;;;;;5.77;2.43;;;;;;;12.53;100.00;96984.72;5074545;28;20670;-68
2023/10/02 01:10:20;;;;;;;7.47;2.67;;;;;;;12.53;100.00;96973.34;5078244;28;21002;-69
2023/10/02 01:12:49;;;;;;;6.43;2.40;;;;;;;12.63;100.00;96980.06;5077771;28;20227;-69
2023/10/02 01:15:19;;;;;;;4.03;1.80;;;;;;;12.64;100.00;96979.06;5078460;28;20227;-68
2023/10/02 01:17:49;;;;;;;8.13;2.67;;;;;;;12.75;100.00;96977.88;5076834;28;20204;-69
2023/10/02 01:20:28;;;;;;;4.07;1.87;;;;;;;12.81;100.00;96975.34;5078057;28;20196;-69
2023/10/02 01:23:11;;;;;;;4.87;1.83;;;;;;;12.55;100.00;96974.81;5077210;28;20211;-69
2023/10/02 01:25:41;;;;;;;5.30;2.43;;;;;;;12.59;100.00;96968.19;5078294;28;20557;-69
2023/10/02 01:28:10;;;;;;;3.90;1.80;;;;;;;12.45;100.00;96971.53;5077244;28;20287;-69
2023/10/02 01:30:37;;;;;;;4.40;1.90;;;;;;;12.52;100.00;96969.84;5078130;28;20288;-70
2023/10/02 01:33:14;;;;;;;4.20;2.10;;;;;;;12.69;100.00;96968.81;5077418;28;20226;-70
2023/10/02 01:35:46;;;;;;;7.07;2.33;;;;;;;12.46;100.00;96959.13;5077890;28;20211;-68
2023/10/02 01:38:14;;;;;;;6.00;2.50;;;;;;;12.34;100.00;96960.50;5076204;28;20755;-69
2023/10/02 01:40:48;;;;;;;5.07;2.90;;;;;;;12.43;100.00;96952.38;5078100;28;20228;-69
2023/10/02 01:43:16;;;;;;;4.47;2.07;;;;;;;12.38;100.00;96952.06;5077291;28;20202;-70
2023/10/02 01:45:43;;;;;;;4.70;2.10;;;;;;;12.26;100.00;96956.06;5077485;28;21047;-68
2023/10/02 01:48:36;;;;;;;5.17;2.10;;;;;;;12.46;100.00;96949.41;5077581;28;20206;-69
2023/10/02 01:51:15;;;;;;;4.77;2.17;;;;;;;12.28;100.00;96956.75;5077504;28;20228;-69
2023/10/02 01:53:42;;;;;;;6.33;2.80;;;;;;;12.29;100.00;96961.00;5077388;28;20247;-69
2023/10/02 01:56:12;;;;;;;7.33;2.67;;;;;;;12.40;100.00;96955.38;5077214;28;20192;-68
2023/10/02 01:58:40;;;;;;;4.33;2.27;;;;;;;12.44;100.00;96954.03;5076652;28;20203;-69
2023/10/02 02:01:09;;;;;;;6.73;2.97;;;;;;;12.39;100.00;96961.63;5077871;28;20227;-69
2023/10/02 02:03:37;;;;;;;5.10;2.23;;;;;;;12.36;100.00;96956.72;5077399;28;20200;-69
2023/10/02 02:06:08;;;;;;;8.97;2.17;;;;;;;12.32;100.00;96949.28;5076817;28;20202;-69
2023/10/02 02:08:35;;;;;;;6.13;2.43;;;;;;;12.32;100.00;96954.56;5076840;28;20366;-69
2023/10/02 02:11:16;;;;;;;4.57;2.63;;;;;;;12.40;100.00;96952.72;5076776;28;20220;-68
2023/10/02 02:13:46;;;;;;;7.97;2.50;;;;;;;12.28;100.00;96954.09;5076619;28;20361;-68
2023/10/02 02:16:15;;;;;;;6.50;2.40;;;;;;;12.12;100.00;96953.31;5076152;28;20435;-69
2023/10/02 02:18:43;;;;;;;9.67;2.47;;;;;;;12.15;100.00;96946.88;5076498;28;20207;-68
2023/10/02 02:21:14;;;;;;;5.23;2.23;;;;;;;12.37;100.00;96950.44;5076374;28;20795;-68
2023/10/02 02:23:41;;;;;;;9.13;2.60;;;;;;;12.29;100.00;96950.44;5076582;28;20297;-68
2023/10/02 02:26:08;;;;;;;8.40;2.17;;;;;;;12.28;100.00;96954.09;5076947;28;20196;-69
2023/10/02 02:28:43;;;;;;;7.40;2.90;;;;;;;12.25;100.00;96953.59;5076013;28;20237;-69
2023/10/02 02:31:29;;;;;;;6.43;2.50;;;;;;;12.36;100.00;96946.13;5076411;28;20230;-68
2023/10/02 02:33:57;;;;;;;5.23;2.20;;;;;;;12.31;100.00;96952.94;5077312;28;20645;-69
2023/10/02 02:36:25;;;;;;;3.70;2.33;;;;;;;12.26;100.00;96955.25;5075019;28;20199;-69
2023/10/02 02:39:07;;;;;;;5.37;2.50;;;;;;;12.23;100.00;96947.66;5076107;28;20199;-69
2023/10/02 02:41:35;;;;;;;7.80;2.53;;;;;;;12.27;100.00;96957.72;5077147;28;20301;-69
2023/10/02 02:44:03;;;;;;;3.20;1.80;;;;;;;12.22;100.00;96953.94;5076902;28;20202;-69
2023/10/02 02:46:32;;;;;;;5.87;2.23;;;;;;;12.27;100.00;96954.25;5075649;28;20200;-69
2023/10/02 02:49:00;;;;;;;7.83;2.70;;;;;;;12.13;100.00;96954.97;5076130;28;20509;-69
2023/10/02 02:51:27;;;;;;;6.03;2.40;;;;;;;12.16;100.00;96954.63;5076282;28;20691;-68
2023/10/02 02:53:53;;;;;;;4.47;1.80;;;;;;;12.08;100.00;96952.00;5075996;28;20223;-69
2023/10/02 02:56:22;;;;;;;5.77;2.43;;;;;;;12.06;100.00;96951.34;5076551;28;20206;-68
2023/10/02 02:58:51;;;;;;;4.93;2.17;;;;;;;12.07;100.00;96947.72;5075250;28;20466;-69
2023/10/02 03:01:21;;;;;;;6.63;2.27;;;;;;;12.10;100.00;96949.19;5075850;28;20220;-69
2023/10/02 03:03:50;;;;;;;7.10;2.30;;;;;;;12.10;100.00;96950.00;5075520;28;20256;-69
2023/10/02 03:06:18;;;;;;;4.30;1.90;;;;;;;12.02;100.00;96943.94;5075177;28;20204;-68
2023/10/02 03:08:46;;;;;;;4.10;2.07;;;;;;;11.97;100.00;96939.16;5075830;28;20207;-69
2023/10/02 03:11:19;;;;;;;5.67;2.57;;;;;;;12.16;100.00;96943.25;5075556;28;20515;-69
2023/10/02 03:13:47;;;;;;;5.57;2.30;;;;;;;11.94;100.00;96943.94;5075792;28;20228;-69
2023/10/02 03:16:17;;;;;;;4.47;2.30;;;;;;;11.92;100.00;96938.00;5074886;28;20682;-69
2023/10/02 03:18:45;;;;;;;4.67;2.30;;;;;;;11.91;100.00;96939.00;5075512;28;20207;-68
2023/10/02 03:21:23;;;;;;;3.87;2.23;;;;;;;12.10;100.00;96938.63;5075158;28;20223;-68
2023/10/02 03:23:50;;;;;;;3.63;1.77;;;;;;;11.83;100.00;96944.28;5075394;28;20227;-68
2023/10/02 03:26:26;;;;;;;4.57;2.10;;;;;;;11.82;100.00;96946.09;5074721;28;20459;-68
2023/10/02 03:29:00;;;;;;;4.03;2.23;;;;;;;11.75;100.00;96941.69;5075885;28;20306;-68
2023/10/02 03:31:36;;;;;;;5.27;2.03;;;;;;;11.81;100.00;96948.91;5074713;28;20227;-68
2023/10/02 03:34:24;;;;;;;5.00;2.77;;;;;;;11.57;100.00;96943.69;5075530;28;20231;-69
2023/10/02 03:36:52;;;;;;;5.60;2.03;;;;;;;11.64;100.00;96947.28;5074543;28;20207;-69
2023/10/02 03:39:51;;;;;;;5.73;2.47;;;;;;;11.51;100.00;96951.41;5076289;28;20196;-69
2023/10/02 03:42:12;;;;;;;5.33;2.03;;;;;;;11.50;100.00;96945.31;5075087;28;20231;-69
2023/10/02 03:44:40;;;;;;;4.77;2.10;;;;;;;11.39;100.00;96948.25;5076006;28;20219;-69
2023/10/02 03:47:06;;;;;;;4.77;2.03;;;;;;;11.37;100.00;96944.94;5074981;28;20611;-68
2023/10/02 03:49:33;;;;;;;5.07;2.10;;;;;;;11.31;100.00;96945.59;5075375;28;20196;-67
2023/10/02 03:52:01;;;;;;;3.83;2.20;;;;;;;11.38;100.00;96941.31;5075164;28;20230;-68
2023/10/02 03:54:29;;;;;;;5.80;2.23;;;;;;;11.22;100.00;96943.94;5074839;28;20572;-68
2023/10/02 03:56:56;;;;;;;6.30;2.10;;;;;;;11.32;100.00;96928.78;5074569;28;20212;-69
2023/10/02 03:59:27;;;;;;;4.33;2.40;;;;;;;11.38;100.00;96930.78;5074707;28;20486;-69
2023/10/02 04:01:53;;;;;;;5.87;2.17;;;;;;;11.28;100.00;96932.75;5074221;28;20723;-69
2023/10/02 04:04:21;;;;;;;7.10;1.97;;;;;;;11.32;100.00;96926.16;5075178;28;20191;-68
2023/10/02 04:06:50;;;;;;;5.97;2.30;;;;;;;11.40;100.00;96931.41;5074613;28;20264;-69
2023/10/02 04:09:21;;;;;;;5.87;2.00;;;;;;;11.46;100.00;96925.50;5075631;28;20200;-69
2023/10/02 04:11:50;;;;;;;9.50;3.37;;;;;;;11.46;100.00;96924.66;5074119;28;20322;-69
2023/10/02 04:14:31;;;;;;;6.47;2.60;;;;;;;11.36;100.00;96926.66;5075528;28;20212;-69
2023/10/02 04:17:09;;;;;;;3.73;2.27;;;;;;;11.39;100.00;96927.16;5073340;28;20316;-68
2023/10/02 04:19:35;;;;;;;7.23;2.73;;;;;;;11.32;100.00;96933.25;5074844;28;20234;-68
2023/10/02 04:22:06;;;;;;;5.53;2.17;;;;;;;11.35;100.00;96933.72;5073877;28;20235;-68
2023/10/02 04:24:50;;;;;;;4.57;2.40;;;;;;;11.49;100.00;96929.63;5075137;28;20207;-68
2023/10/02 04:27:18;;;;;;;4.47;2.30;;;;;;;11.42;100.00;96932.09;5074000;28;20207;-69
2023/10/02 04:30:09;;;;;;;4.60;2.00;;;;;;;11.31;100.00;96935.03;5075025;28;20477;-68
2023/10/02 04:32:32;;;;;;;6.07;1.93;;;;;;;11.29;100.00;96934.41;5074566;28;20392;-69
2023/10/02 04:35:02;;;;;;;5.53;2.53;;;;;;;11.33;100.00;96943.63;5074830;28;20230;-69
2023/10/02 04:37:31;;;;;;;5.50;2.63;;;;;;;11.28;100.00;96939.84;5074033;28;20203;-69
2023/10/02 04:40:15;;;;;;;5.83;2.17;;;;;;;11.44;100.00;96937.19;5074562;28;20768;-69
2023/10/02 04:43:14;;;;;;;4.87;2.00;;;;;;;11.39;100.00;96939.50;5076279;28;20597;-68
2023/10/02 04:45:44;;;;;;;7.20;2.20;;;;;;;11.25;100.00;96948.06;5078977;28;20256;-69
2023/10/02 04:48:10;;;;;;;5.30;1.90;;;;;;;11.16;100.00;96946.41;5078357;28;20648;-69
2023/10/02 04:50:45;;;;;;;3.60;2.00;;;;;;;11.41;100.00;96945.47;5078208;28;20204;-69
2023/10/02 04:53:19;;;;;;;4.77;2.17;;;;;;;11.14;100.00;96948.41;5078418;28;20219;-70
2023/10/02 04:55:48;;;;;;;3.10;1.60;;;;;;;11.24;100.00;96959.59;5078843;28;20343;-70
2023/10/02 04:58:19;;;;;;;3.93;2.07;;;;;;;11.23;100.00;96958.78;5079230;28;20199;-68
2023/10/02 05:03:27;;;;;;;6.53;2.27;;;;;;;11.29;100.00;96952.88;5079414;28;20203;-69
2023/10/02 05:05:54;;;;;;;5.93;2.33;;;;;;;11.27;100.00;96951.38;5077817;28;20237;-70
2023/10/02 05:08:30;;;;;;;4.17;2.60;;;;;;;11.32;100.00;96951.72;5079504;28;20206;-70
2023/10/02 05:11:04;;;;;;;5.40;2.10;;;;;;;11.41;100.00;96946.25;5077603;28;20772;-69
2023/10/02 05:13:53;;;;;;;2.93;1.90;;;;;;;11.21;100.00;96954.66;5079482;28;20328;-70
2023/10/02 05:16:26;;;;;;;6.03;2.40;;;;;;;11.34;100.00;96955.84;5078002;28;20200;-69
2023/10/02 05:18:54;;;;;;;4.80;2.40;;;;;;;11.41;100.00;96956.00;5078138;28;20252;-70
2023/10/02 05:21:35;;;;;;;7.43;2.50;;;;;;;11.28;100.00;96963.59;5078447;28;20212;-70
2023/10/02 05:24:03;;;;;;;5.47;2.30;;;;;;;11.25;100.00;96962.09;5077695;28;20681;-68
2023/10/02 05:26:32;;;;;;;3.90;2.40;;;;;;;11.38;100.00;96964.22;5078559;28;20200;-70
2023/10/02 05:28:59;;;;;;;5.47;2.40;;;;;;;11.26;100.00;96968.19;5077722;28;20684;-70
2023/10/02 05:31:27;;;;;;;5.27;2.23;;;;;;;11.30;100.00;96970.34;5077599;28;20226;-69
2023/10/02 05:33:57;;;;;;;4.03;1.93;;;;;;;11.49;100.00;96967.38;5077313;28;20228;-68
2023/10/02 05:36:24;;;;;;;6.80;2.93;;;;;;;11.42;100.00;96979.59;5078142;28;20223;-68
2023/10/02 05:41:44;;;;;;;5.63;2.13;;;;;;;11.56;100.00;96976.31;5077677;28;20276;-70
2023/10/02 05:44:13;;;;;;;4.17;2.07;;;;;;;11.52;100.00;96979.44;5077243;28;20206;-70
2023/10/02 05:46:55;;;;;;;3.33;1.90;;;;;;;11.60;100.00;96981.09;5077858;28;20215;-69
2023/10/02 05:49:23;;;;;;;6.00;2.30;;;;;;;11.73;100.00;96978.78;5076729;28;20200;-70
2023/10/02 05:51:55;;;;;;;5.90;2.30;;;;;;;11.57;100.00;96984.06;5078000;28;20228;-69
2023/10/02 05:54:26;;;;;;;5.83;2.20;;;;;;;11.56;100.00;96992.16;5076916;28;20246;-70
2023/10/02 05:57:08;;;;;;;3.00;1.40;;;;;;;11.72;100.00;96985.06;5077132;28;20204;-69
2023/10/02 05:59:43;;;;;;;3.80;1.80;;;;;;;11.73;100.00;96993.81;5077778;28;20282;-69
2023/10/02 06:02:11;;;;;;;4.13;2.10;;;;;;;11.68;100.00;96999.59;5077698;28;20627;-69
2023/10/02 06:04:38;;;;;;;6.07;2.43;;;;;;;11.72;100.00;96994.78;5077605;28;20196;-70
2023/10/02 06:07:09;;;;;;;4.40;1.93;;;;;;;11.76;100.00;96999.59;5075554;28;20369;-68
2023/10/02 06:09:43;;;;;;;3.33;1.67;;;;;;;12.73;100.00;96993.91;5078253;28;20676;-69
2023/10/02 06:12:11;;;;;;;2.47;1.57;;;;;;;13.43;100.00;96994.53;5076718;28;20219;-70
2023/10/02 06:14:39;;;;;;;3.80;2.20;;;;;;;13.72;100.00;96992.00;5077627;28;20716;-68
2023/10/02 06:17:11;;;;;;;6.30;2.23;;;;;;;14.08;100.00;96995.69;5076712;28;20207;-70
2023/10/02 06:19:42;;;;;;;5.23;2.37;;;;;;;14.23;100.00;96986.75;5078080;28;20207;-70
2023/10/02 06:22:09;;;;;;;3.90;2.03;;;;;;;14.28;100.00;96988.84;5076042;28;20251;-69
2023/10/02 06:24:36;;;;;;;5.60;3.10;;;;;;;14.07;100.00;96991.34;5078067;28;20196;-70
2023/10/02 06:27:05;;;;;;;5.90;2.83;;;;;;;13.87;100.00;97003.44;5076375;28;20208;-70
2023/10/02 06:29:36;;;;;;;8.00;3.30;;;;;;;13.89;100.00;97003.28;5076566;28;20354;-69
2023/10/02 06:32:05;;;;;;;6.07;3.07;;;;;;;13.65;100.00;96995.53;5076646;28;20273;-72
2023/10/02 06:34:37;;;;;;;6.20;3.03;;;;;;;13.45;100.00;96999.63;5077137;28;20224;-70
2023/10/02 06:37:08;;;;;;;6.03;3.10;;;;;;;13.39;100.00;96998.53;5076127;28;20687;-72
2023/10/02 06:39:36;;;;;;;7.63;3.00;;;;;;;13.35;100.00;97003.53;5078221;28;20204;-71
2023/10/02 06:42:05;;;;;;;9.00;3.50;;;;;;;13.35;100.00;97008.81;5076805;28;20605;-72
2023/10/02 06:44:42;;;;;;;7.23;3.27;;;;;;;13.37;100.00;96996.25;5076362;28;20689;-69
2023/10/02 06:47:13;;;;;;;8.40;3.40;;;;;;;13.35;100.00;97003.53;5075853;28;20949;-71
2023/10/02 06:49:41;;;;;;;13.83;4.53;;;;;;;13.30;100.00;96997.91;5076051;28;20196;-70
2023/10/02 06:52:15;;;;;;;9.87;4.20;;;;;;;13.47;100.00;96995.81;5075493;28;20231;-70
2023/10/02 06:54:43;;;;;;;14.13;4.03;;;;;;;13.61;100.00;97003.00;5076284;28;20688;-71
2023/10/02 06:57:13;;;;;;;12.47;4.33;;;;;;;13.84;100.00;96995.84;5076139;28;20210;-72
2023/10/02 06:59:51;;;;;;;14.90;4.73;;;;;;;14.01;100.00;96995.53;5077023;28;20454;-71
2023/10/02 07:02:18;;;;;;;11.97;4.70;;;;;;;13.99;100.00;97000.19;5076103;28;20668;-70
2023/10/02 07:04:45;;;;;;;11.03;4.40;;;;;;;14.19;100.00;97001.38;5076536;28;20200;-71
2023/10/02 07:07:12;;;;;;;11.13;4.70;;;;;;;14.21;100.00;97003.84;5073514;28;20205;-71
2023/10/02 07:09:39;;;;;;;11.57;4.87;;;;;;;14.31;100.00;96999.91;5076652;28;20576;-71
2023/10/02 07:12:13;;;;;;;18.10;5.53;;;;;;;14.45;100.00;97000.94;5074251;28;20661;-71
2023/10/02 07:14:42;;;;;;;17.73;5.87;;;;;;;14.72;100.00;97001.13;5074185;28;20227;-72
2023/10/02 07:17:16;;;;;;;13.67;6.50;;;;;;;14.83;100.00;97001.47;5075320;28;20214;-72
2023/10/02 07:19:51;;;;;;;15.80;5.72;;;;;;;14.96;100.00;97006.13;5077031;28;20600;-72
2023/10/02 07:22:23;;;;;;;22.33;5.68;;;;;;;15.06;100.00;97001.34;5075976;28;21197;-71
2023/10/02 07:24:52;;;;;;;18.80;5.63;;;;;;;15.20;100.00;97009.28;5072577;28;20227;-71
2023/10/02 07:27:29;;;;;;;20.33;6.82;;;;;;;15.35;100.00;97002.13;5074841;28;20199;-69
2023/10/02 07:29:58;;;;;;;13.88;4.97;;;;;;;15.54;100.00;97012.13;5073397;28;20203;-71
2023/10/02 07:32:26;;;;;;;23.35;5.60;;;;;;;15.44;100.00;97015.13;5074753;28;20230;-70
2023/10/02 07:34:55;;;;;;;19.40;6.00;;;;;;;15.60;100.00;97011.38;5073612;28;20230;-70
2023/10/02 07:37:24;;;;;;;19.88;5.40;;;;;;;15.73;100.00;97011.50;5073516;28;20204;-71
2023/10/02 07:39:56;;;;;;;21.77;5.38;;;;;;;15.82;100.00;97007.72;5073652;28;20207;-71
2023/10/02 07:42:28;;;;;;;16.08;5.13;;;;;;;15.96;100.00;97008.47;5074092;28;20223;-70
2023/10/02 07:45:11;;;;;;;19.92;5.97;;;;;;;16.12;100.00;97007.38;5072130;28;20654;-71
2023/10/02 07:47:39;;;;;;;13.45;5.10;;;;;;;16.04;100.00;97000.38;5072066;28;20206;-71
2023/10/02 07:50:23;;;;;;;16.70;5.88;;;;;;;16.22;100.00;97003.38;5073612;28;20214;-71
2023/10/02 07:52:49;;;;;;;17.13;5.55;;;;;;;16.30;100.00;97003.25;5074714;28;20306;-72
2023/10/02 07:55:16;;;;;;;18.95;6.60;;;;;;;16.18;100.00;96999.44;5071466;28;20322;-72
2023/10/02 07:57:43;;;;;;;21.70;6.50;;;;;;;16.47;100.00;96996.63;5073344;28;20290;-71
2023/10/02 08:02:52;;;;;;;19.33;6.07;;;;;;;16.58;100.00;96998.75;5072069;28;20669;-69
2023/10/02 08:05:20;;;;;;;18.33;6.40;;;;;;;16.64;100.00;96998.78;5072209;28;20555;-70
2023/10/02 08:07:46;;;;;;;18.58;5.60;;;;;;;16.81;100.00;96999.28;5073644;28;20235;-71
2023/10/02 08:10:14;;;;;;;17.20;6.20;;;;;;;16.91;100.00;97000.56;5073800;28;20290;-70
2023/10/02 08:12:54;;;;;;;22.98;5.70;;;;;;;17.00;100.00;96998.56;5074144;28;20305;-69
2023/10/02 08:15:27;;;;;;;16.35;5.15;;;;;;;17.28;100.00;96995.63;5073733;28;21477;-70
2023/10/02 08:18:14;;;;;;;15.85;5.63;;;;;;;17.28;100.00;96998.28;5073036;28;20226;-71
2023/10/02 08:20:40;;;;;;;21.00;5.97;;;;;;;17.44;100.00;97002.47;5073374;28;20204;-70
2023/10/02 08:23:21;;;;;;;18.15;6.05;;;;;;;17.64;100.00;97001.47;5073242;28;20212;-71
2023/10/02 08:26:00;;;;;;;16.65;6.45;;;;;;;17.68;100.00;97005.41;5074287;28;20249;-70
2023/10/02 08:28:30;;;;;;;19.17;5.32;;;;;;;17.79;100.00;96996.78;5073480;28;20207;-70
2023/10/02 08:31:01;;;;;;;20.98;5.45;;;;;;;17.90;100.00;96994.34;5072035;28;20717;-69
2023/10/02 08:33:30;;;;;;;14.70;4.78;;;;;;;17.86;100.00;96997.63;5073540;28;20227;-71
2023/10/02 08:35:57;;;;;;;21.27;5.75;;;;;;;18.03;100.00;96998.88;5073507;28;20230;-71
2023/10/02 08:38:24;;;;;;;15.38;4.15;;;;;;;18.00;100.00;96993.94;5074055;28;20196;-71
2023/10/02 08:40:57;;;;;;;16.08;4.93;;;;;;;18.00;100.00;96997.44;5073832;28;20227;-70
2023/10/02 08:43:23;;;;;;;19.70;6.05;;;;;;;18.36;100.00;96988.00;5073746;28;20204;-71
2023/10/02 08:45:50;;;;;;;19.48;5.38;;;;;;;18.44;100.00;96981.63;5073109;28;20214;-72
2023/10/02 08:48:20;;;;;;;19.33;6.38;;;;;;;18.74;100.00;96991.66;5073856;28;20211;-71
2023/10/02 08:50:47;;;;;;;18.67;5.55;;;;;;;18.68;100.00;96994.34;5074530;28;20228;-70
2023/10/02 08:53:20;;;;;;;13.35;4.78;;;;;;;19.07;100.00;96987.88;5075028;28;20204;-70
2023/10/02 08:55:54;;;;;;;18.38;5.47;;;;;;;19.19;100.00;96982.69;5074173;28;20228;-71
2023/10/02 08:58:22;;;;;;;15.88;4.88;;;;;;;19.42;100.00;96983.00;5073441;28;20358;-70
2023/10/02 09:04:03;;;;;;;16.73;6.68;;;;;;;19.53;100.00;96985.00;5071067;28;20204;-72
2023/10/02 09:06:37;;;;;;;16.38;4.70;;;;;;;19.51;100.00;96987.06;5073352;28;20579;-69
2023/10/02 09:09:15;;;;;;;18.70;4.75;;;;;;;19.53;100.00;96982.34;5073130;28;20670;-71
2023/10/02 09:11:42;;;;;;;14.43;5.75;;;;;;;19.53;100.00;96990.34;5073450;28;20292;-72
2023/10/02 09:14:16;;;;;;;13.07;4.90;;;;;;;19.50;100.00;96988.09;5074127;28;20593;-72
2023/10/02 09:16:46;;;;;;;14.10;5.40;;;;;;;19.68;100.00;96989.84;5072169;28;20286;-69
2023/10/02 09:19:34;;;;;;;16.92;5.07;;;;;;;19.92;100.00;96985.59;5073113;28;20493;-70
2023/10/02 09:22:07;;;;;;;17.15;4.40;;;;;;;19.80;100.00;96984.63;5073035;28;20232;-71
2023/10/02 09:24:35;;;;;;;17.88;5.65;;;;;;;20.16;100.00;96977.56;5071976;28;20203;-69
2023/10/02 09:29:45;;;;;;;14.25;5.07;;;;;;;20.46;100.00;96968.66;5075057;28;20690;-71
2023/10/02 09:32:21;;;;;;;15.57;5.45;;;;;;;20.59;100.00;96975.75;5078072;28;21001;-71
2023/10/02 09:35:11;;;;;;;17.92;5.80;;;;;;;20.67;100.00;96976.31;5077960;28;20774;-71
2023/10/02 09:37:39;;;;;;;16.58;6.18;;;;;;;20.57;100.00;96969.78;5076954;28;20196;-70
2023/10/02 09:40:14;;;;;;;13.38;4.90;;;;;;;20.54;100.00;96975.59;5076811;28;20715;-71
2023/10/02 09:42:45;;;;;;;14.15;4.20;;;;;;;20.83;100.00;96968.50;5078049;28;20238;-70
2023/10/02 09:45:17;;;;;;;18.35;5.10;;;;;;;21.03;100.00;96965.63;5076885;28;20692;-71
2023/10/02 09:47:43;;;;;;;14.98;4.72;;;;;;;21.10;100.00;96966.38;5076193;28;20681;-70
2023/10/02 09:50:23;;;;;;;18.55;5.15;;;;;;;21.42;100.00;96965.94;5076409;28;20196;-71
2023/10/02 09:52:59;;;;;;;17.45;5.47;;;;;;;21.66;100.00;96962.34;5075915;28;20208;-71
2023/10/02 09:55:41;;;;;;;17.70;5.43;;;;;;;21.90;100.00;96959.50;5075812;28;20985;-70
2023/10/02 09:58:26;;;;;;;21.73;5.50;;;;;;;21.88;100.00;96955.41;5076321;28;20250;-70
2023/10/02 10:01:36;;;;;;;21.52;5.70;;;;;;;21.85;100.00;96953.19;5077030;28;20285;-71
2023/10/02 10:04:30;;;;;;;13.40;4.82;;;;;;;21.57;100.00;96955.66;5077705;28;21082;-72
2023/10/02 10:07:35;;;;;;;15.35;6.13;;;;;;;22.22;100.00;96953.63;5075137;28;20307;-70
2023/10/02 10:10:27;;;;;;;22.00;6.20;;;;;;;22.41;100.00;96944.44;5076828;28;20196;-71
2023/10/02 10:12:55;;;;;;;10.65;4.32;;;;;;;22.20;100.00;96944.97;5061001;28;20204;-70
2023/10/02 10:15:25;;;;;;;21.15;6.38;;;;;;;22.20;100.00;96947.66;5076994;28;20224;-71
2023/10/02 10:17:58;;;;;;;20.85;4.93;;;;;;;22.29;100.00;96949.00;5076855;28;20962;-71
2023/10/02 10:20:26;;;;;;;13.10;4.30;;;;;;;22.37;100.00;96939.78;5076504;28;20199;-71
2023/10/02 10:22:57;;;;;;;16.63;4.85;;;;;;;22.51;100.00;96936.63;5076918;28;20212;-71
2023/10/02 10:25:45;;;;;;;13.25;4.78;;;;;;;22.62;100.00;96943.03;5078666;28;20202;-70
2023/10/02 10:28:30;;;;;;;18.40;5.00;;;;;;;22.73;100.00;96934.97;5069577;28;20282;-71
2023/10/02 10:31:01;;;;;;;21.60;5.30;;;;;;;22.79;100.00;96942.91;5076975;28;20245;-72
2023/10/02 10:33:41;;;;;;;19.05;5.95;;;;;;;23.26;100.00;96933.72;5076899;28;20284;-72
2023/10/02 10:36:34;;;;;;;14.50;4.07;;;;;;;23.31;100.00;96937.31;5076013;28;20250;-72
2023/10/02 10:39:30;;;;;;;16.95;5.93;;;;;;;23.10;100.00;96930.97;5070818;28;20272;-70
2023/10/02 10:41:57;;;;;;;21.35;5.25;;;;;;;23.12;100.00;96929.66;5076550;28;20251;-72
2023/10/02 10:44:33;;;;;;;11.98;3.92;;;;;;;23.46;100.00;96926.88;5076137;28;20219;-70
2023/10/02 10:47:03;;;;;;;12.10;4.30;;;;;;;23.56;100.00;96926.22;5076719;28;21132;-71
2023/10/02 10:49:52;;;;;;;15.07;4.88;;;;;;;23.77;100.00;96921.00;5076968;28;20210;-72
2023/10/02 10:52:34;;;;;;;14.13;5.18;;;;;;;23.92;100.00;96920.44;5076332;28;20608;-72
2023/10/02 10:55:04;;;;;;;15.90;5.03;;;;;;;23.67;100.00;96911.91;5076768;28;20300;-72
2023/10/02 10:57:51;;;;;;;23.27;6.30;;;;;;;24.05;100.00;96912.88;5076419;28;20287;-72
2023/10/02 11:00:31;;;;;;;15.35;6.28;;;;;;;23.69;100.00;96916.03;5075892;28;20219;-70
2023/10/02 11:03:01;;;;;;;17.98;4.72;;;;;;;23.83;100.00;96914.66;5075234;28;20210;-72
2023/10/02 11:05:33;;;;;;;19.38;5.85;;;;;;;23.84;100.00;96912.78;5076588;28;20230;-72
2023/10/02 11:08:23;;;;;;;15.77;4.88;;;;;;;24.05;100.00;96911.00;5072945;28;21186;-72
2023/10/02 11:11:00;;;;;;;17.00;5.18;;;;;;;24.15;100.00;96913.06;5073802;28;20234;-71
2023/10/02 11:13:28;;;;;;;13.88;5.10;;;;;;;23.86;100.00;96911.47;5075364;28;20258;-71
2023/10/02 11:16:07;;;;;;;16.70;4.25;;;;;;;24.05;100.00;96915.56;5072792;28;20234;-70
2023/10/02 11:18:39;;;;;;;21.45;4.80;;;;;;;23.99;100.00;96900.38;5071664;28;20204;-69
2023/10/02 11:21:21;;;;;;;17.80;5.45;;;;;;;24.18;100.00;96901.78;5073275;28;20246;-70
2023/10/02 11:23:48;;;;;;;23.25;5.40;;;;;;;24.13;100.00;96901.69;5073833;28;20215;-72
2023/10/02 11:26:23;;;;;;;16.10;5.75;;;;;;;24.26;100.00;96891.44;5072605;28;20200;-72
2023/10/02 11:28:50;;;;;;;16.15;4.97;;;;;;;24.17;100.00;96894.75;5070513;28;20719;-71
2023/10/02 11:31:30;;;;;;;19.48;4.72;;;;;;;24.08;100.00;96890.84;5072922;28;20247;-71
2023/10/02 11:34:01;;;;;;;26.08;4.82;;;;;;;24.06;100.00;96891.09;5072889;28;20226;-71
2023/10/02 11:36:33;;;;;;;18.52;4.80;;;;;;;23.76;100.00;96891.66;5072153;28;20222;-72
2023/10/02 11:39:07;;;;;;;17.50;4.70;;;;;;;23.92;100.00;96893.53;5075141;28;20203;-72
2023/10/02 11:41:36;;;;;;;17.85;5.00;;;;;;;23.98;100.00;96879.91;5071145;28;20721;-72
2023/10/02 11:44:05;;;;;;;21.42;5.68;;;;;;;23.95;100.00;96878.53;5073561;28;21018;-70
2023/10/02 11:46:32;;;;;;;20.30;5.55;;;;;;;23.87;100.00;96870.03;5072627;28;20602;-70
2023/10/02 11:48:59;;;;;;;17.85;5.63;;;;;;;23.94;100.00;96870.69;5074594;28;20200;-72
2023/10/02 11:51:28;;;;;;;18.90;5.97;;;;;;;23.89;100.00;96867.09;5070363;28;20222;-71
2023/10/02 11:53:56;;;;;;;21.50;5.28;;;;;;;24.02;100.00;96856.84;5073671;28;20227;-72
2023/10/02 11:56:23;;;;;;;19.27;5.57;;;;;;;24.07;100.00;96863.09;5072132;28;20599;-72
2023/10/02 11:58:52;;;;;;;15.57;5.22;;;;;;;24.19;100.00;96857.63;5074638;28;20258;-70
2023/10/02 12:01:19;;;;;;;19.15;5.32;;;;;;;24.02;100.00;96854.94;5073212;28;20780;-72